createdAt,value
2022-10-28T00:03:57.501Z,10.02
2022-10-28T00:09:01.005Z,10.18
2022-10-28T00:14:06.118Z,10.31
2022-10-28T00:19:12.081Z,10.42
2022-10-28T00:24:15.218Z,10.59
2022-10-28T00:29:18.984Z,10.71
2022-10-28T00:34:22.683Z,10.78
2022-10-28T00:39:27.629Z,10.80
2022-10-28T00:44:39.508Z,10.84
2022-10-28T00:49:44.406Z,10.93
2022-10-28T00:54:48.027Z,10.97
2022-10-28T00:59:53.587Z,11.02
2022-10-28T01:04:56.411Z,11.02
2022-10-28T01:09:59.241Z,11.06
2022-10-28T01:15:04.758Z,11.06
2022-10-28T01:20:44.202Z,11.07
2022-10-28T01:26:08.522Z,11.15
2022-10-28T01:31:33.236Z,11.21
2022-10-28T01:36:41.833Z,11.22
2022-10-28T01:41:58.814Z,11.17
2022-10-28T01:47:06.870Z,11.15
2022-10-28T01:52:14.361Z,11.15
2022-10-28T01:57:19.564Z,11.05
2022-10-28T02:02:22.271Z,10.95
2022-10-28T02:07:25.118Z,10.95
2022-10-28T02:12:37.318Z,10.98
2022-10-28T02:17:55.418Z,10.94
2022-10-28T02:23:06.477Z,10.91
2022-10-28T02:28:19.432Z,10.88
2022-10-28T02:33:26.937Z,10.77
2022-10-28T02:38:42.456Z,10.71
2022-10-28T02:43:48.291Z,10.66
2022-10-28T02:48:54.690Z,10.54
2022-10-28T02:54:22.694Z,10.45
2022-10-28T02:59:25.870Z,10.33
2022-10-28T03:04:28.645Z,10.28
2022-10-28T03:09:31.397Z,10.25
2022-10-28T03:14:34.228Z,10.18
2022-10-28T03:19:36.970Z,10.11
2022-10-28T03:24:39.701Z,10.01
2022-10-28T03:29:45.687Z,9.94
2022-10-28T03:34:48.955Z,9.89
2022-10-28T03:39:51.696Z,9.90
2022-10-28T03:44:54.457Z,9.89
2022-10-28T03:49:57.180Z,9.95
2022-10-28T03:54:59.952Z,10.00
2022-10-28T04:00:03.812Z,10.03
2022-10-28T04:05:06.941Z,10.01
2022-10-28T04:10:09.854Z,10.01
2022-10-28T04:15:12.598Z,9.99
2022-10-28T04:20:15.406Z,9.96
2022-10-28T04:25:18.207Z,9.88
2022-10-28T04:30:21.371Z,9.84
2022-10-28T04:35:24.323Z,9.87
2022-10-28T04:40:27.103Z,9.94
2022-10-28T04:45:31.844Z,9.94
2022-10-28T04:50:34.856Z,9.93
2022-10-28T04:55:37.782Z,9.98
2022-10-28T05:00:40.610Z,9.98
2022-10-28T05:05:43.413Z,10.01
2022-10-28T05:10:50.204Z,10.07
2022-10-28T05:15:53.033Z,10.09
2022-10-28T05:20:55.890Z,10.09
2022-10-28T05:25:58.736Z,10.12
2022-10-28T05:31:01.691Z,10.16
2022-10-28T05:36:04.548Z,10.18
2022-10-28T05:41:07.289Z,10.21
2022-10-28T05:46:10.439Z,10.20
2022-10-28T05:51:13.032Z,10.17
2022-10-28T05:56:15.757Z,10.18
2022-10-28T06:01:18.522Z,10.18
2022-10-28T06:06:21.389Z,10.21
2022-10-28T06:11:22.764Z,10.29
2022-10-28T06:16:25.514Z,10.37
2022-10-28T06:21:28.267Z,10.41
2022-10-28T06:26:31.654Z,10.53
2022-10-28T06:31:38.287Z,10.71
2022-10-28T06:36:41.021Z,10.92
2022-10-28T06:41:44.174Z,11.10
2022-10-28T06:46:48.308Z,11.27
2022-10-28T06:51:51.677Z,11.43
2022-10-28T06:56:54.504Z,11.53
2022-10-28T07:01:57.518Z,11.60
2022-10-28T07:07:00.590Z,11.64
2022-10-28T07:12:05.109Z,11.58
2022-10-28T07:17:08.654Z,11.56
2022-10-28T07:22:11.496Z,11.67
2022-10-28T07:27:14.376Z,11.82
2022-10-28T07:32:17.258Z,11.97
2022-10-28T07:37:20.299Z,12.06
2022-10-28T07:42:24.129Z,12.12
2022-10-28T07:47:27.486Z,12.19
2022-10-28T07:52:39.551Z,12.29
2022-10-28T07:57:46.717Z,12.37
2022-10-28T08:02:52.455Z,12.47
2022-10-28T08:07:55.568Z,12.62
2022-10-28T08:13:00.999Z,12.77
2022-10-28T08:18:08.558Z,12.89
2022-10-28T08:28:56.698Z,13.03
2022-10-28T08:33:59.695Z,13.11
2022-10-28T08:39:03.111Z,13.26
2022-10-28T08:44:21.265Z,13.40
2022-10-28T08:49:24.961Z,13.55
2022-10-28T08:54:35.022Z,13.67
2022-10-28T08:59:41.027Z,13.85
2022-10-28T09:04:45.976Z,14.08
2022-10-28T09:10:18.258Z,14.32
2022-10-28T09:15:57.873Z,14.50
2022-10-28T09:21:05.056Z,14.60
2022-10-28T09:26:37.674Z,14.66
2022-10-28T09:31:53.269Z,14.72
2022-10-28T09:37:24.644Z,14.83
2022-10-28T09:42:59.936Z,14.94
2022-10-28T09:48:34.520Z,15.07
2022-10-28T09:53:54.145Z,15.23
2022-10-28T09:59:03.264Z,15.35
2022-10-28T10:04:24.325Z,15.49
2022-10-28T10:09:34.824Z,15.65
2022-10-28T10:14:46.617Z,15.77
2022-10-28T10:20:00.586Z,15.78
2022-10-28T10:25:21.240Z,15.75
2022-10-28T10:30:29.584Z,15.70
2022-10-28T10:35:40.929Z,15.72
2022-10-28T10:40:53.455Z,15.74
2022-10-28T10:46:03.045Z,15.71
2022-10-28T10:51:26.888Z,15.73
2022-10-28T10:56:35.850Z,15.88
2022-10-28T11:01:40.259Z,16.04
2022-10-28T11:06:48.774Z,16.18
2022-10-28T11:11:55.578Z,16.30
2022-10-28T11:17:00.814Z,16.37
2022-10-28T11:22:46.208Z,16.52
2022-10-28T11:28:03.089Z,16.70
2022-10-28T11:33:29.493Z,16.82
2022-10-28T11:39:09.446Z,17.01
2022-10-28T11:44:50.217Z,17.28
2022-10-28T11:50:05.369Z,17.64
2022-10-28T11:55:32.715Z,17.80
2022-10-28T12:00:53.927Z,17.88
2022-10-28T12:06:07.846Z,18.07
2022-10-28T12:11:48.536Z,18.18
2022-10-28T12:17:14.710Z,17.80
2022-10-28T12:22:40.642Z,17.44
2022-10-28T12:27:48.403Z,17.07
2022-10-28T12:33:00.085Z,16.82
2022-10-28T12:38:28.664Z,16.53
2022-10-28T12:43:36.187Z,16.35
2022-10-28T12:49:04.993Z,16.25
2022-10-28T12:54:13.557Z,16.22
2022-10-28T12:59:31.911Z,16.20
2022-10-28T13:04:37.565Z,16.12
2022-10-28T13:10:11.838Z,16.01
2022-10-28T13:15:31.002Z,15.97
2022-10-28T13:21:18.950Z,16.00
2022-10-28T13:26:41.282Z,16.03
2022-10-28T13:31:48.688Z,16.12
2022-10-28T13:37:06.087Z,16.22
2022-10-28T13:42:23.488Z,16.24
2022-10-28T13:47:35.822Z,16.21
2022-10-28T13:52:42.940Z,16.13
2022-10-28T13:57:48.625Z,16.11
2022-10-28T14:02:57.528Z,16.10
2022-10-28T14:08:39.406Z,16.12
2022-10-28T14:13:52.282Z,16.14
2022-10-28T14:18:59.388Z,16.16
2022-10-28T14:24:31.881Z,16.08
2022-10-28T14:29:55.397Z,15.98
2022-10-28T14:35:10.503Z,15.81
2022-10-28T14:40:46.106Z,15.60
2022-10-28T14:46:05.774Z,15.40
2022-10-28T14:51:14.925Z,15.25
2022-10-28T14:56:35.426Z,15.14
2022-10-28T15:02:14.826Z,14.97
2022-10-28T15:07:20.984Z,14.79
2022-10-28T15:12:27.558Z,14.67
2022-10-28T15:17:42.525Z,14.54
2022-10-28T15:22:46.428Z,14.37
2022-10-28T15:28:12.987Z,14.23
2022-10-28T15:33:51.321Z,14.14
2022-10-28T15:39:16.037Z,14.04
2022-10-28T15:44:24.473Z,13.97
2022-10-28T15:49:57.406Z,13.90
2022-10-28T15:55:03.518Z,13.86
2022-10-28T16:00:31.047Z,13.86
2022-10-28T16:05:53.309Z,13.92
2022-10-28T16:10:57.887Z,14.00
2022-10-28T16:16:30.150Z,14.06
2022-10-28T16:21:33.167Z,14.09
2022-10-28T16:26:53.583Z,14.10
2022-10-28T16:31:56.343Z,14.12
2022-10-28T16:36:59.116Z,14.13
2022-10-28T16:42:01.887Z,14.11
2022-10-28T16:47:12.821Z,14.11
2022-10-28T16:52:22.561Z,14.07
2022-10-28T16:57:25.938Z,14.02
2022-10-28T17:02:32.100Z,14.01
2022-10-28T17:07:35.052Z,14.05
2022-10-28T17:12:37.823Z,14.07
2022-10-28T17:17:40.572Z,14.09
2022-10-28T17:22:43.319Z,14.12
2022-10-28T17:27:49.482Z,14.15
2022-10-28T17:33:10.057Z,14.17
2022-10-28T17:38:12.826Z,14.12
2022-10-28T17:43:15.565Z,14.03
2022-10-28T17:48:18.465Z,13.97
2022-10-28T17:53:22.136Z,13.92
2022-10-28T17:58:42.396Z,13.85
2022-10-28T18:03:45.176Z,13.83
2022-10-28T18:13:52.992Z,13.87
2022-10-28T18:19:13.934Z,13.85
2022-10-28T18:24:34.829Z,13.85
2022-10-28T18:29:37.570Z,13.86
2022-10-28T18:34:40.367Z,13.89
2022-10-28T18:39:43.138Z,13.94
2022-10-28T18:44:45.890Z,13.99
2022-10-28T18:49:48.675Z,13.96
2022-10-28T18:54:52.138Z,13.91
2022-10-28T19:05:35.382Z,13.82
2022-10-28T19:10:57.408Z,13.76
2022-10-28T19:16:00.591Z,13.69
2022-10-28T19:21:05.843Z,13.64
2022-10-28T19:26:10.151Z,13.59
2022-10-28T19:31:21.688Z,13.54
2022-10-28T19:36:26.990Z,13.54
2022-10-28T19:41:30.847Z,13.55
2022-10-28T19:46:35.872Z,13.57
2022-10-28T19:51:42.394Z,13.57
2022-10-28T19:56:47.506Z,13.54
2022-10-28T20:01:50.556Z,13.51
2022-10-28T20:06:53.770Z,13.55
2022-10-28T20:11:56.667Z,13.57
2022-10-28T20:17:06.310Z,13.62
2022-10-28T20:22:10.036Z,13.66
2022-10-28T20:27:13.150Z,13.65
2022-10-28T20:32:35.067Z,13.60
2022-10-28T20:37:38.096Z,13.63
2022-10-28T20:42:40.868Z,13.68
2022-10-28T20:47:43.737Z,13.69
2022-10-28T20:52:46.511Z,13.66
2022-10-28T20:57:49.262Z,13.67
2022-10-28T21:02:54.448Z,13.70
2022-10-28T21:07:58.043Z,13.69
2022-10-28T21:13:01.779Z,13.68
2022-10-28T21:18:06.534Z,13.67
2022-10-28T21:23:09.888Z,13.64
2022-10-28T21:28:12.627Z,13.58
2022-10-28T21:33:34.775Z,13.50
2022-10-28T21:38:37.723Z,13.42
2022-10-28T21:43:42.835Z,13.36
2022-10-28T21:48:45.614Z,13.31
2022-10-28T21:53:48.475Z,13.25
2022-10-28T21:58:51.393Z,13.21
2022-10-28T22:03:55.181Z,13.17
2022-10-28T22:08:59.514Z,13.07
2022-10-28T22:14:21.468Z,13.01
2022-10-28T22:19:41.783Z,12.99
2022-10-28T22:24:44.527Z,12.98
2022-10-28T22:29:47.339Z,13.02
2022-10-28T22:34:50.123Z,13.04
2022-10-28T22:39:52.932Z,13.02
2022-10-28T22:44:55.712Z,13.01
2022-10-28T22:50:16.366Z,12.98
2022-10-28T22:55:36.672Z,12.96
2022-10-28T23:00:39.860Z,12.97
2022-10-28T23:06:00.013Z,12.94
2022-10-28T23:11:03.138Z,12.89
2022-10-28T23:16:11.030Z,12.86
2022-10-28T23:21:16.332Z,12.86
2022-10-28T23:26:19.068Z,12.85
2022-10-28T23:31:23.080Z,12.86
2022-10-28T23:36:26.000Z,12.89
2022-10-28T23:41:28.626Z,12.86
2022-10-28T23:46:36.512Z,12.84
2022-10-28T23:51:40.445Z,12.85
2022-10-28T23:56:43.169Z,12.85
